createdAt,value
2022-11-07T00:00:43.795Z,81.83
2022-11-07T00:03:16.339Z,82.16
2022-11-07T00:05:46.468Z,82.18
2022-11-07T00:08:16.242Z,82.21
2022-11-07T00:10:48.614Z,82.19
2022-11-07T00:13:18.379Z,82.39
2022-11-07T00:15:48.094Z,82.60
2022-11-07T00:18:17.944Z,82.04
2022-11-07T00:20:47.709Z,82.12
2022-11-07T00:23:17.592Z,82.42
2022-11-07T00:25:50.013Z,82.47
2022-11-07T00:28:19.892Z,82.28
2022-11-07T00:30:49.719Z,82.24
2022-11-07T00:33:19.477Z,82.90
2022-11-07T00:35:49.493Z,82.88
2022-11-07T00:38:19.384Z,83.41
2022-11-07T00:40:59.886Z,83.25
2022-11-07T00:43:30.364Z,83.10
2022-11-07T00:46:02.655Z,83.36
2022-11-07T00:48:33.402Z,83.54
2022-11-07T00:51:08.878Z,83.18
2022-11-07T00:53:38.662Z,83.53
2022-11-07T00:56:13.597Z,83.22
2022-11-07T00:58:44.419Z,82.94
2022-11-07T01:01:17.636Z,83.72
2022-11-07T01:03:59.945Z,83.45
2022-11-07T01:06:30.704Z,83.66
2022-11-07T01:09:00.917Z,83.87
2022-11-07T01:11:33.366Z,84.01
2022-11-07T01:14:04.998Z,83.69
2022-11-07T01:16:35.875Z,83.63
2022-11-07T01:19:06.245Z,83.94
2022-11-07T01:21:36.074Z,84.17
2022-11-07T01:24:05.914Z,84.45
2022-11-07T01:26:39.178Z,84.00
2022-11-07T01:29:09.442Z,84.41
2022-11-07T01:31:39.226Z,84.70
2022-11-07T01:34:09.249Z,84.42
2022-11-07T01:36:39.022Z,84.18
2022-11-07T01:39:09.961Z,83.79
2022-11-07T01:41:43.979Z,83.93
2022-11-07T01:44:43.604Z,84.20
2022-11-07T01:47:14.286Z,84.25
2022-11-07T01:49:45.960Z,83.90
2022-11-07T01:52:19.982Z,83.89
2022-11-07T01:54:57.795Z,83.91
2022-11-07T01:57:34.198Z,84.15
2022-11-07T02:00:08.905Z,84.23
2022-11-07T02:02:40.084Z,84.06
2022-11-07T02:05:11.719Z,84.38
2022-11-07T02:07:42.626Z,84.88
2022-11-07T02:10:14.099Z,84.36
2022-11-07T02:12:46.962Z,84.33
2022-11-07T02:15:16.795Z,84.77
2022-11-07T02:17:46.569Z,85.37
2022-11-07T02:20:16.627Z,85.29
2022-11-07T02:22:52.258Z,84.99
2022-11-07T02:25:25.268Z,85.11
2022-11-07T02:27:58.319Z,85.02
2022-11-07T02:30:30.868Z,85.56
2022-11-07T02:33:00.639Z,85.52
2022-11-07T02:35:42.559Z,84.94
2022-11-07T02:38:16.802Z,85.45
2022-11-07T02:40:52.490Z,85.00
2022-11-07T02:43:25.558Z,85.34
2022-11-07T02:45:56.479Z,84.60
2022-11-07T02:48:31.472Z,85.05
2022-11-07T02:51:01.903Z,85.21
2022-11-07T02:53:31.718Z,85.23
2022-11-07T02:56:04.209Z,85.11
2022-11-07T02:58:34.158Z,85.41
2022-11-07T03:01:07.141Z,85.46
2022-11-07T03:03:39.162Z,85.04
2022-11-07T03:06:10.669Z,85.17
2022-11-07T03:08:40.572Z,85.72
2022-11-07T03:11:14.361Z,85.46
2022-11-07T03:13:44.163Z,85.21
2022-11-07T03:16:14.219Z,85.12
2022-11-07T03:18:44.011Z,85.41
2022-11-07T03:21:14.300Z,85.51
2022-11-07T03:23:44.059Z,85.58
2022-11-07T03:26:16.373Z,85.41
2022-11-07T03:28:46.178Z,85.23
2022-11-07T03:31:15.917Z,85.61
2022-11-07T03:33:45.618Z,85.66
2022-11-07T03:36:15.363Z,85.59
2022-11-07T03:38:45.102Z,86.27
2022-11-07T03:41:17.525Z,85.84
2022-11-07T03:43:48.017Z,85.95
2022-11-07T03:46:18.871Z,86.03
2022-11-07T03:48:48.840Z,85.72
2022-11-07T03:51:18.636Z,86.77
2022-11-07T03:53:48.413Z,86.38
2022-11-07T03:56:20.732Z,86.65
2022-11-07T03:58:50.591Z,87.11
2022-11-07T04:01:20.412Z,87.34
2022-11-07T04:03:53.927Z,87.36
2022-11-07T04:06:25.954Z,87.43
2022-11-07T04:08:55.712Z,87.69
2022-11-07T04:11:40.516Z,87.48
2022-11-07T04:14:23.395Z,87.34
2022-11-07T04:17:05.627Z,88.01
2022-11-07T04:19:35.533Z,88.02
2022-11-07T04:22:05.352Z,87.94
2022-11-07T04:24:35.114Z,88.40
2022-11-07T04:27:19.918Z,88.04
2022-11-07T04:29:49.656Z,87.54
2022-11-07T04:32:19.389Z,87.96
2022-11-07T04:34:49.150Z,87.67
2022-11-07T04:37:18.959Z,87.21
2022-11-07T04:39:48.950Z,87.00
2022-11-07T04:42:21.281Z,87.51
2022-11-07T04:44:51.025Z,88.19
2022-11-07T04:47:20.784Z,87.89
2022-11-07T04:49:50.534Z,87.48
2022-11-07T04:52:20.292Z,87.28
2022-11-07T04:54:50.081Z,87.11
2022-11-07T04:57:22.422Z,87.13
2022-11-07T04:59:52.155Z,87.43
2022-11-07T05:02:21.955Z,88.10
2022-11-07T05:04:51.701Z,87.44
2022-11-07T05:07:22.080Z,86.96
2022-11-07T05:09:51.869Z,86.92
2022-11-07T05:12:24.221Z,86.91
2022-11-07T05:14:54.014Z,86.64
2022-11-07T05:17:27.851Z,86.77
2022-11-07T05:19:57.909Z,86.22
2022-11-07T05:22:40.102Z,86.24
2022-11-07T05:25:11.533Z,86.41
2022-11-07T05:27:43.930Z,86.19
2022-11-07T05:30:15.249Z,86.30
2022-11-07T05:32:44.978Z,86.41
2022-11-07T05:35:14.706Z,86.44
2022-11-07T05:37:44.449Z,86.49
2022-11-07T05:40:15.089Z,86.61
2022-11-07T05:42:47.561Z,86.40
2022-11-07T05:45:17.583Z,86.60
2022-11-07T05:47:47.358Z,86.71
2022-11-07T05:50:17.313Z,85.91
2022-11-07T05:52:47.094Z,86.02
2022-11-07T05:55:17.002Z,85.85
2022-11-07T05:57:50.040Z,85.82
2022-11-07T06:00:20.914Z,85.67
2022-11-07T06:02:57.620Z,85.33
2022-11-07T06:05:27.522Z,85.12
2022-11-07T06:07:58.265Z,85.81
2022-11-07T06:10:29.295Z,85.89
2022-11-07T06:13:05.069Z,85.69
2022-11-07T06:15:37.792Z,85.96
2022-11-07T06:18:11.639Z,86.45
2022-11-07T06:20:42.666Z,85.92
2022-11-07T06:23:14.821Z,86.52
2022-11-07T06:25:45.939Z,86.42
2022-11-07T06:28:19.333Z,85.97
2022-11-07T06:30:50.159Z,87.23
2022-11-07T06:33:22.268Z,87.05
2022-11-07T06:35:53.087Z,86.56
2022-11-07T06:38:24.076Z,86.19
2022-11-07T06:40:54.840Z,86.38
2022-11-07T06:43:33.826Z,86.20
2022-11-07T06:46:07.159Z,86.13
2022-11-07T06:48:38.005Z,86.06
2022-11-07T06:51:11.386Z,86.22
2022-11-07T06:53:42.426Z,86.15
2022-11-07T06:56:17.604Z,85.81
2022-11-07T06:58:51.094Z,86.02
2022-11-07T07:01:21.103Z,86.13
2022-11-07T07:03:53.209Z,86.17
2022-11-07T07:06:24.062Z,85.98
2022-11-07T07:08:54.992Z,85.61
2022-11-07T07:11:25.887Z,85.70
2022-11-07T07:14:02.009Z,86.44
2022-11-07T07:16:33.372Z,85.63
2022-11-07T07:19:04.242Z,85.01
2022-11-07T07:21:36.482Z,84.90
2022-11-07T07:24:08.462Z,84.85
2022-11-07T07:26:39.318Z,84.92
2022-11-07T07:29:12.756Z,84.17
2022-11-07T07:31:44.550Z,83.83
2022-11-07T07:34:14.611Z,84.52
2022-11-07T07:36:44.463Z,84.20
2022-11-07T07:39:15.335Z,83.82
2022-11-07T07:41:46.928Z,84.09
2022-11-07T07:44:26.430Z,83.77
2022-11-07T07:46:57.278Z,84.42
2022-11-07T07:49:28.202Z,84.36
2022-11-07T07:51:59.104Z,83.97
2022-11-07T07:54:29.885Z,83.29
2022-11-07T07:57:01.857Z,83.59
2022-11-07T07:59:39.260Z,83.31
2022-11-07T08:02:13.098Z,83.24
2022-11-07T08:04:44.518Z,83.26
2022-11-07T08:07:15.658Z,82.75
2022-11-07T08:09:46.519Z,82.88
2022-11-07T08:12:17.276Z,82.51
2022-11-07T08:14:50.731Z,82.39
2022-11-07T08:17:21.548Z,82.53
2022-11-07T08:19:52.425Z,82.11
2022-11-07T08:22:23.279Z,81.83
2022-11-07T08:24:53.063Z,81.97
2022-11-07T08:27:22.944Z,82.07
2022-11-07T08:29:55.675Z,82.44
2022-11-07T08:32:25.565Z,82.57
2022-11-07T08:34:55.388Z,82.65
2022-11-07T08:37:25.455Z,82.61
2022-11-07T08:39:55.262Z,82.45
2022-11-07T08:42:25.029Z,82.75
2022-11-07T08:44:57.445Z,82.88
2022-11-07T08:47:28.361Z,82.82
2022-11-07T08:49:58.145Z,82.11
2022-11-07T08:52:27.934Z,82.26
2022-11-07T08:54:57.713Z,82.46
2022-11-07T08:57:27.446Z,82.36
2022-11-07T08:59:59.802Z,81.66
2022-11-07T09:05:19.578Z,82.06
2022-11-07T09:07:49.334Z,81.80
2022-11-07T09:10:19.142Z,82.31
2022-11-07T09:12:49.336Z,82.09
2022-11-07T09:15:22.569Z,81.95
2022-11-07T09:17:53.069Z,81.61
2022-11-07T09:20:22.942Z,81.86
2022-11-07T09:22:52.717Z,81.30
2022-11-07T09:25:23.399Z,81.56
2022-11-07T09:27:54.416Z,80.93
2022-11-07T09:30:26.819Z,81.81
2022-11-07T09:32:59.066Z,81.77
2022-11-07T09:35:29.060Z,81.59
2022-11-07T09:37:58.858Z,81.87
2022-11-07T09:40:41.220Z,82.03
2022-11-07T09:43:28.467Z,81.76
2022-11-07T09:46:06.777Z,81.69
2022-11-07T09:48:44.773Z,81.34
2022-11-07T09:51:21.518Z,81.58
2022-11-07T09:53:58.946Z,81.05
2022-11-07T09:56:30.683Z,81.60
2022-11-07T09:59:04.023Z,81.44
2022-11-07T10:01:36.907Z,81.85
2022-11-07T10:04:25.302Z,81.54
2022-11-07T10:07:01.222Z,81.38
2022-11-07T10:09:43.256Z,81.10
2022-11-07T10:12:26.431Z,80.33
2022-11-07T10:15:04.624Z,80.56
2022-11-07T10:17:48.035Z,80.35
2022-11-07T10:20:31.895Z,81.09
2022-11-07T10:23:20.275Z,80.98
2022-11-07T10:25:57.807Z,80.59
2022-11-07T10:28:28.257Z,81.28
2022-11-07T10:31:01.620Z,80.69
2022-11-07T10:33:42.574Z,80.33
2022-11-07T10:36:20.327Z,79.57
2022-11-07T10:38:50.097Z,79.75
2022-11-07T10:41:22.045Z,79.81
2022-11-07T10:43:55.248Z,78.91
2022-11-07T10:46:29.929Z,79.05
2022-11-07T10:49:04.349Z,78.99
2022-11-07T10:51:38.919Z,79.26
2022-11-07T10:54:09.645Z,79.88
2022-11-07T10:56:50.723Z,79.67
2022-11-07T10:59:32.917Z,78.87
2022-11-07T11:02:12.361Z,79.22
2022-11-07T11:04:51.614Z,77.29
2022-11-07T11:07:27.144Z,78.09
2022-11-07T11:09:59.989Z,78.10
2022-11-07T11:12:34.307Z,78.11
2022-11-07T11:15:09.656Z,77.29
2022-11-07T11:17:39.707Z,77.43
2022-11-07T11:20:31.105Z,77.21
2022-11-07T11:23:02.464Z,76.43
2022-11-07T11:25:32.306Z,76.36
2022-11-07T11:28:08.813Z,76.51
2022-11-07T11:30:39.732Z,76.40
2022-11-07T11:33:15.194Z,76.52
2022-11-07T11:35:51.997Z,75.32
2022-11-07T11:38:26.907Z,76.21
2022-11-07T11:41:07.665Z,76.29
2022-11-07T11:43:48.106Z,76.36
2022-11-07T11:46:26.766Z,76.70
2022-11-07T11:49:00.889Z,75.01
2022-11-07T11:51:41.539Z,75.92
2022-11-07T11:54:13.008Z,75.14
2022-11-07T11:56:55.122Z,75.19
2022-11-07T11:59:49.890Z,75.48
2022-11-07T12:02:50.181Z,75.28
2022-11-07T12:05:48.765Z,76.34
2022-11-07T12:08:38.272Z,75.19
2022-11-07T12:11:15.473Z,74.36
2022-11-07T12:13:52.268Z,74.47
2022-11-07T12:16:29.410Z,74.90
2022-11-07T12:19:08.455Z,75.03
2022-11-07T12:21:48.611Z,72.48
2022-11-07T12:24:35.912Z,73.47
2022-11-07T12:27:19.372Z,73.74
2022-11-07T12:30:07.599Z,74.82
2022-11-07T12:32:50.868Z,73.98
2022-11-07T12:35:43.031Z,73.78
2022-11-07T12:38:45.491Z,74.37
2022-11-07T12:41:29.070Z,75.18
2022-11-07T12:44:09.174Z,74.95
2022-11-07T12:46:48.736Z,75.43
2022-11-07T12:49:43.692Z,75.73
2022-11-07T12:52:36.580Z,77.03
2022-11-07T12:55:18.775Z,77.42
2022-11-07T12:57:52.903Z,77.61
2022-11-07T13:00:29.650Z,77.92
2022-11-07T13:03:30.526Z,78.32
2022-11-07T13:06:13.730Z,78.90
2022-11-07T13:08:50.160Z,79.48
2022-11-07T13:11:26.294Z,80.25
2022-11-07T13:14:22.708Z,81.00
2022-11-07T13:17:05.700Z,85.12
2022-11-07T13:19:37.744Z,89.35
2022-11-07T13:22:09.844Z,90.69
2022-11-07T13:24:41.775Z,90.38
2022-11-07T13:27:23.366Z,89.44
2022-11-07T13:29:55.751Z,89.81
2022-11-07T13:32:26.738Z,89.46
2022-11-07T13:35:02.943Z,90.16
2022-11-07T13:37:35.202Z,89.82
2022-11-07T13:40:09.976Z,89.32
2022-11-07T13:42:43.046Z,88.69
2022-11-07T13:45:29.304Z,88.66
2022-11-07T13:48:03.690Z,89.67
2022-11-07T13:50:42.462Z,89.50
2022-11-07T13:53:20.123Z,89.93
2022-11-07T13:55:58.771Z,89.34
2022-11-07T13:58:31.496Z,89.83
2022-11-07T14:01:12.717Z,89.51
2022-11-07T14:03:43.588Z,89.81
2022-11-07T14:06:16.149Z,90.15
2022-11-07T14:08:48.806Z,89.72
2022-11-07T14:11:21.889Z,89.62
2022-11-07T14:13:56.890Z,89.99
2022-11-07T14:16:32.321Z,90.07
2022-11-07T14:19:06.650Z,90.06
2022-11-07T14:21:38.892Z,90.33
2022-11-07T14:24:24.431Z,89.15
2022-11-07T14:27:01.488Z,89.20
2022-11-07T14:29:32.690Z,89.65
2022-11-07T14:32:07.663Z,89.43
2022-11-07T14:34:38.265Z,89.14
2022-11-07T14:37:09.670Z,89.38
2022-11-07T14:39:40.715Z,89.07
2022-11-07T14:42:11.327Z,89.17
2022-11-07T14:44:54.568Z,88.82
2022-11-07T14:47:31.946Z,88.98
2022-11-07T14:50:04.559Z,88.36
2022-11-07T14:52:39.156Z,88.37
2022-11-07T14:55:18.931Z,88.87
2022-11-07T14:57:49.606Z,88.58
2022-11-07T15:00:22.551Z,88.74
2022-11-07T15:02:57.629Z,88.42
2022-11-07T15:05:30.278Z,87.90
2022-11-07T15:08:02.777Z,87.79
2022-11-07T15:10:36.719Z,88.42
2022-11-07T15:13:08.785Z,88.63
2022-11-07T15:15:40.320Z,88.16
2022-11-07T15:18:28.537Z,87.27
2022-11-07T15:21:01.076Z,87.82
2022-11-07T15:23:34.304Z,87.96
2022-11-07T15:26:15.049Z,87.75
2022-11-07T15:28:50.378Z,87.72
2022-11-07T15:31:37.435Z,87.19
2022-11-07T15:34:17.921Z,87.09
2022-11-07T15:36:51.947Z,87.91
2022-11-07T15:39:22.887Z,86.95
2022-11-07T15:41:53.711Z,86.80
2022-11-07T15:44:24.678Z,86.51
2022-11-07T15:46:55.655Z,86.96
2022-11-07T15:49:30.942Z,86.52
2022-11-07T15:52:01.762Z,86.60
2022-11-07T15:54:31.584Z,86.66
2022-11-07T15:57:06.461Z,86.01
2022-11-07T15:59:39.874Z,86.53
2022-11-07T16:02:17.830Z,86.19
2022-11-07T16:04:51.444Z,86.41
2022-11-07T16:07:23.126Z,86.30
2022-11-07T16:09:53.038Z,86.48
2022-11-07T16:12:23.897Z,86.20
2022-11-07T16:14:55.774Z,85.98
2022-11-07T16:17:25.629Z,86.08
2022-11-07T16:20:01.567Z,86.17
2022-11-07T16:22:32.686Z,86.02
2022-11-07T16:25:05.917Z,86.26
2022-11-07T16:27:40.345Z,86.04
2022-11-07T16:30:16.847Z,86.23
2022-11-07T16:32:47.057Z,86.30
2022-11-07T16:35:19.598Z,85.50
2022-11-07T16:37:49.670Z,85.31
2022-11-07T16:40:22.339Z,85.18
2022-11-07T16:42:52.181Z,85.23
2022-11-07T16:45:22.480Z,85.34
2022-11-07T16:47:52.344Z,85.25
2022-11-07T16:50:25.720Z,84.63
2022-11-07T16:52:55.707Z,84.56
2022-11-07T16:55:25.509Z,84.30
2022-11-07T16:57:56.883Z,84.37
2022-11-07T17:00:27.745Z,84.68
2022-11-07T17:02:58.628Z,84.67
2022-11-07T17:05:32.154Z,84.35
2022-11-07T17:08:05.360Z,84.54
2022-11-07T17:10:36.181Z,84.40
2022-11-07T17:13:06.096Z,84.44
2022-11-07T17:15:35.914Z,84.20
2022-11-07T17:18:08.431Z,84.14
2022-11-07T17:20:50.941Z,84.79
2022-11-07T17:23:28.533Z,84.84
2022-11-07T17:26:02.445Z,84.27
2022-11-07T17:28:33.619Z,84.68
2022-11-07T17:31:03.572Z,84.33
2022-11-07T17:33:33.525Z,84.25
2022-11-07T17:36:08.380Z,83.94
2022-11-07T17:38:39.346Z,84.34
2022-11-07T17:41:19.755Z,84.16
2022-11-07T17:43:51.921Z,84.14
2022-11-07T17:46:26.146Z,84.22
2022-11-07T17:48:58.382Z,84.40
2022-11-07T17:51:31.270Z,84.71
2022-11-07T17:54:02.219Z,84.71
2022-11-07T17:56:34.865Z,84.90
2022-11-07T17:59:06.783Z,84.58
2022-11-07T18:01:41.352Z,84.85
2022-11-07T18:04:13.641Z,85.05
2022-11-07T18:06:46.377Z,84.69
2022-11-07T18:09:18.048Z,84.37
2022-11-07T18:11:49.099Z,84.63
2022-11-07T18:14:18.899Z,84.40
2022-11-07T18:16:48.826Z,84.38
2022-11-07T18:19:19.048Z,84.35
2022-11-07T18:21:51.510Z,84.08
2022-11-07T18:24:21.449Z,84.44
2022-11-07T18:26:53.514Z,84.23
2022-11-07T18:29:23.604Z,84.47
2022-11-07T18:31:53.533Z,84.47
2022-11-07T18:34:23.547Z,83.96
2022-11-07T18:36:56.138Z,83.81
2022-11-07T18:39:26.258Z,84.08
2022-11-07T18:41:56.693Z,84.38
2022-11-07T18:44:26.704Z,84.00
2022-11-07T18:46:56.708Z,83.83
2022-11-07T18:49:26.754Z,84.11
2022-11-07T18:51:59.410Z,83.71
2022-11-07T18:54:29.937Z,83.97
2022-11-07T18:57:00.005Z,83.68
2022-11-07T18:59:32.931Z,83.14
2022-11-07T19:02:02.926Z,82.92
2022-11-07T19:04:34.002Z,83.27
2022-11-07T19:07:06.596Z,83.66
2022-11-07T19:09:37.042Z,83.77
2022-11-07T19:12:08.310Z,83.11
2022-11-07T19:14:38.370Z,83.04
2022-11-07T19:17:08.339Z,83.13
2022-11-07T19:19:38.457Z,82.95
2022-11-07T19:22:12.635Z,82.59
2022-11-07T19:24:42.611Z,83.16
2022-11-07T19:27:12.581Z,83.28
2022-11-07T19:29:42.659Z,83.16
2022-11-07T19:32:12.808Z,83.20
2022-11-07T19:34:42.708Z,83.26
2022-11-07T19:37:15.257Z,83.73
2022-11-07T19:39:45.107Z,84.33
2022-11-07T19:42:15.151Z,84.36
2022-11-07T19:44:50.464Z,84.26
2022-11-07T19:47:23.923Z,84.38
2022-11-07T19:49:53.998Z,84.23
2022-11-07T19:52:26.622Z,84.24
2022-11-07T19:54:56.513Z,84.48
2022-11-07T19:57:26.557Z,84.48
2022-11-07T19:59:57.545Z,84.41
2022-11-07T20:02:34.613Z,84.10
2022-11-07T20:05:07.118Z,84.57
2022-11-07T20:07:39.637Z,84.03
2022-11-07T20:10:10.935Z,84.41
2022-11-07T20:12:40.925Z,84.40
2022-11-07T20:15:12.487Z,83.91
2022-11-07T20:17:43.361Z,84.08
2022-11-07T20:20:14.675Z,83.73
2022-11-07T20:22:50.402Z,84.01
2022-11-07T20:25:20.682Z,84.52
2022-11-07T20:27:50.605Z,84.60
2022-11-07T20:30:20.395Z,84.39
2022-11-07T20:32:51.356Z,84.67
2022-11-07T20:35:21.154Z,84.59
2022-11-07T20:37:53.718Z,84.01
2022-11-07T20:40:29.088Z,83.52
2022-11-07T20:43:02.879Z,83.36
2022-11-07T20:45:33.736Z,83.72
2022-11-07T20:48:04.792Z,83.32
2022-11-07T20:50:37.569Z,82.94
2022-11-07T20:53:10.170Z,83.19
2022-11-07T20:55:44.576Z,82.67
2022-11-07T20:58:16.553Z,82.74
2022-11-07T21:00:47.646Z,82.43
2022-11-07T21:03:19.144Z,82.60
2022-11-07T21:05:54.044Z,82.67
2022-11-07T21:08:26.715Z,82.77
2022-11-07T21:10:56.795Z,83.28
2022-11-07T21:13:26.844Z,82.95
2022-11-07T21:15:56.713Z,83.51
2022-11-07T21:18:27.194Z,83.10
2022-11-07T21:21:06.864Z,82.95
2022-11-07T21:23:41.522Z,82.76
2022-11-07T21:26:13.283Z,82.93
2022-11-07T21:28:43.608Z,83.29
2022-11-07T21:31:18.166Z,83.02
2022-11-07T21:33:49.033Z,83.03
2022-11-07T21:36:20.741Z,82.92
2022-11-07T21:38:53.457Z,82.77
2022-11-07T21:41:25.052Z,83.12
2022-11-07T21:43:55.047Z,82.88
2022-11-07T21:46:27.182Z,82.84
2022-11-07T21:48:58.833Z,82.46
2022-11-07T21:51:31.565Z,82.45
2022-11-07T21:54:05.618Z,82.26
2022-11-07T21:56:39.340Z,81.75
2022-11-07T21:59:13.324Z,81.55
2022-11-07T22:01:44.904Z,82.00
2022-11-07T22:04:15.926Z,82.14
2022-11-07T22:06:47.617Z,82.22
2022-11-07T22:09:23.015Z,81.44
2022-11-07T22:11:53.053Z,81.91
2022-11-07T22:14:25.771Z,82.00
2022-11-07T22:16:57.925Z,82.25
2022-11-07T22:19:28.835Z,82.04
2022-11-07T22:21:59.702Z,82.10
2022-11-07T22:24:32.146Z,82.25
2022-11-07T22:27:02.990Z,82.42
2022-11-07T22:29:33.859Z,82.23
2022-11-07T22:32:04.042Z,82.35
2022-11-07T22:34:34.042Z,82.62
2022-11-07T22:37:04.900Z,82.52
2022-11-07T22:39:38.342Z,82.01
2022-11-07T22:42:08.654Z,82.86
2022-11-07T22:44:38.503Z,83.11
2022-11-07T22:47:08.441Z,82.79
2022-11-07T22:49:38.381Z,82.46
2022-11-07T22:52:08.304Z,82.20
2022-11-07T22:54:41.054Z,82.68
2022-11-07T22:57:15.296Z,82.30
2022-11-07T22:59:47.516Z,82.39
2022-11-07T23:02:17.432Z,82.59
2022-11-07T23:04:47.280Z,82.07
2022-11-07T23:07:17.033Z,82.53
2022-11-07T23:09:49.434Z,82.02
2022-11-07T23:12:19.185Z,82.56
2022-11-07T23:14:49.262Z,82.57
2022-11-07T23:17:19.153Z,82.25
2022-11-07T23:19:48.894Z,82.35
2022-11-07T23:22:18.629Z,82.35
2022-11-07T23:24:52.873Z,82.38
2022-11-07T23:27:23.304Z,82.11
2022-11-07T23:29:53.189Z,82.16
2022-11-07T23:32:22.961Z,82.03
2022-11-07T23:34:55.407Z,81.69
2022-11-07T23:37:25.143Z,81.99
2022-11-07T23:39:57.554Z,82.53
2022-11-07T23:42:27.293Z,83.27
2022-11-07T23:45:09.507Z,83.15
2022-11-07T23:47:51.714Z,83.49
2022-11-07T23:50:34.068Z,83.55
2022-11-07T23:53:24.475Z,83.94
2022-11-07T23:55:54.219Z,83.41
2022-11-07T23:58:36.469Z,83.66
